sensor_id;sensor_type;location;lat;lon;timestamp;P1;durP1;ratioP1;P2;durP2;ratioP2
3783;SDS011;1907;49.238;9.262;2022-07-29T00:00:38;7.77;;;3.30;;
3783;SDS011;1907;49.238;9.262;2022-07-29T00:03:04;3.53;;;3.10;;
3783;SDS011;1907;49.238;9.262;2022-07-29T00:05:29;4.40;;;2.73;;
3783;SDS011;1907;49.238;9.262;2022-07-29T00:07:55;3.27;;;2.97;;
3783;SDS011;1907;49.238;9.262;2022-07-29T00:10:21;7.23;;;3.77;;
3783;SDS011;1907;49.238;9.262;2022-07-29T00:12:46;3.07;;;2.97;;
3783;SDS011;1907;49.238;9.262;2022-07-29T00:15:12;7.37;;;4.20;;
3783;SDS011;1907;49.238;9.262;2022-07-29T00:17:37;6.63;;;3.70;;
3783;SDS011;1907;49.238;9.262;2022-07-29T00:20:03;4.30;;;4.10;;
3783;SDS011;1907;49.238;9.262;2022-07-29T00:22:29;3.83;;;3.53;;
3783;SDS011;1907;49.238;9.262;2022-07-29T00:24:55;3.47;;;3.37;;
3783;SDS011;1907;49.238;9.262;2022-07-29T00:27:21;4.70;;;4.10;;
3783;SDS011;1907;49.238;9.262;2022-07-29T00:29:46;3.30;;;3.20;;
3783;SDS011;1907;49.238;9.262;2022-07-29T00:32:12;3.73;;;3.50;;
3783;SDS011;1907;49.238;9.262;2022-07-29T00:34:38;3.27;;;3.17;;
3783;SDS011;1907;49.238;9.262;2022-07-29T00:37:23;3.60;;;3.40;;
3783;SDS011;1907;49.238;9.262;2022-07-29T00:39:48;4.20;;;4.00;;
3783;SDS011;1907;49.238;9.262;2022-07-29T00:42:14;3.20;;;3.10;;
3783;SDS011;1907;49.238;9.262;2022-07-29T00:44:41;4.30;;;3.80;;
3783;SDS011;1907;49.238;9.262;2022-07-29T00:47:07;4.27;;;4.07;;
3783;SDS011;1907;49.238;9.262;2022-07-29T00:49:34;4.27;;;3.33;;
3783;SDS011;1907;49.238;9.262;2022-07-29T00:52:02;4.03;;;3.73;;
3783;SDS011;1907;49.238;9.262;2022-07-29T00:54:32;6.10;;;4.03;;
3783;SDS011;1907;49.238;9.262;2022-07-29T00:56:59;4.57;;;4.37;;
3783;SDS011;1907;49.238;9.262;2022-07-29T00:59:27;4.23;;;3.83;;
3783;SDS011;1907;49.238;9.262;2022-07-29T01:01:53;4.07;;;3.97;;
3783;SDS011;1907;49.238;9.262;2022-07-29T01:04:20;3.43;;;3.33;;
3783;SDS011;1907;49.238;9.262;2022-07-29T01:06:49;3.50;;;3.40;;
3783;SDS011;1907;49.238;9.262;2022-07-29T01:09:16;3.20;;;3.00;;
3783;SDS011;1907;49.238;9.262;2022-07-29T01:11:43;3.87;;;3.77;;
3783;SDS011;1907;49.238;9.262;2022-07-29T01:14:10;3.90;;;3.70;;
3783;SDS011;1907;49.238;9.262;2022-07-29T01:16:42;3.53;;;3.20;;
3783;SDS011;1907;49.238;9.262;2022-07-29T01:22:17;4.20;;;4.00;;
3783;SDS011;1907;49.238;9.262;2022-07-29T01:30:35;3.33;;;3.23;;
3783;SDS011;1907;49.238;9.262;2022-07-29T01:33:10;4.70;;;4.50;;
3783;SDS011;1907;49.238;9.262;2022-07-29T01:35:59;3.83;;;3.73;;
3783;SDS011;1907;49.238;9.262;2022-07-29T01:38:30;4.13;;;3.93;;
3783;SDS011;1907;49.238;9.262;2022-07-29T01:41:00;4.20;;;3.90;;
3783;SDS011;1907;49.238;9.262;2022-07-29T01:43:35;5.07;;;4.77;;
3783;SDS011;1907;49.238;9.262;2022-07-29T01:46:08;4.07;;;3.77;;
3783;SDS011;1907;49.238;9.262;2022-07-29T01:48:48;4.43;;;4.30;;
3783;SDS011;1907;49.238;9.262;2022-07-29T01:51:30;4.03;;;3.93;;
3783;SDS011;1907;49.238;9.262;2022-07-29T01:56:32;3.87;;;3.60;;
3783;SDS011;1907;49.238;9.262;2022-07-29T01:59:00;4.70;;;4.40;;
3783;SDS011;1907;49.238;9.262;2022-07-29T02:01:27;4.17;;;3.90;;
3783;SDS011;1907;49.238;9.262;2022-07-29T02:03:57;4.17;;;4.03;;
3783;SDS011;1907;49.238;9.262;2022-07-29T02:06:27;5.20;;;4.90;;
3783;SDS011;1907;49.238;9.262;2022-07-29T02:08:54;4.60;;;4.13;;
3783;SDS011;1907;49.238;9.262;2022-07-29T02:11:23;4.27;;;4.07;;
3783;SDS011;1907;49.238;9.262;2022-07-29T02:13:49;4.80;;;4.33;;
3783;SDS011;1907;49.238;9.262;2022-07-29T02:16:17;4.13;;;3.93;;
3783;SDS011;1907;49.238;9.262;2022-07-29T02:18:46;4.20;;;4.00;;
3783;SDS011;1907;49.238;9.262;2022-07-29T02:21:19;4.10;;;4.00;;
3783;SDS011;1907;49.238;9.262;2022-07-29T02:23:48;4.67;;;4.37;;
3783;SDS011;1907;49.238;9.262;2022-07-29T02:26:14;6.07;;;5.50;;
3783;SDS011;1907;49.238;9.262;2022-07-29T02:28:43;4.30;;;4.00;;
3783;SDS011;1907;49.238;9.262;2022-07-29T02:31:11;5.10;;;4.80;;
3783;SDS011;1907;49.238;9.262;2022-07-29T02:33:38;4.93;;;4.73;;
3783;SDS011;1907;49.238;9.262;2022-07-29T02:36:06;6.23;;;4.50;;
3783;SDS011;1907;49.238;9.262;2022-07-29T02:38:32;4.93;;;4.73;;
3783;SDS011;1907;49.238;9.262;2022-07-29T02:41:29;4.50;;;4.30;;
3783;SDS011;1907;49.238;9.262;2022-07-29T02:44:03;4.80;;;4.60;;
3783;SDS011;1907;49.238;9.262;2022-07-29T02:46:35;5.60;;;5.40;;
3783;SDS011;1907;49.238;9.262;2022-07-29T02:49:09;5.43;;;5.00;;
3783;SDS011;1907;49.238;9.262;2022-07-29T02:51:54;4.97;;;4.67;;
3783;SDS011;1907;49.238;9.262;2022-07-29T02:54:30;4.60;;;4.40;;
3783;SDS011;1907;49.238;9.262;2022-07-29T02:57:08;6.13;;;4.37;;
3783;SDS011;1907;49.238;9.262;2022-07-29T02:59:43;5.67;;;5.47;;
3783;SDS011;1907;49.238;9.262;2022-07-29T03:02:12;6.67;;;6.37;;
3783;SDS011;1907;49.238;9.262;2022-07-29T03:04:40;5.60;;;5.40;;
3783;SDS011;1907;49.238;9.262;2022-07-29T03:07:08;15.73;;;5.83;;
3783;SDS011;1907;49.238;9.262;2022-07-29T03:09:35;5.27;;;4.97;;
3783;SDS011;1907;49.238;9.262;2022-07-29T03:12:03;7.23;;;6.50;;
3783;SDS011;1907;49.238;9.262;2022-07-29T03:14:29;7.20;;;6.70;;
3783;SDS011;1907;49.238;9.262;2022-07-29T03:16:56;5.97;;;5.77;;
3783;SDS011;1907;49.238;9.262;2022-07-29T03:19:23;6.33;;;6.07;;
3783;SDS011;1907;49.238;9.262;2022-07-29T03:21:49;5.83;;;5.53;;
3783;SDS011;1907;49.238;9.262;2022-07-29T03:26:54;5.50;;;5.30;;
3783;SDS011;1907;49.238;9.262;2022-07-29T03:29:21;5.07;;;4.87;;
3783;SDS011;1907;49.238;9.262;2022-07-29T03:31:46;5.90;;;5.70;;
3783;SDS011;1907;49.238;9.262;2022-07-29T03:34:12;5.10;;;4.90;;
3783;SDS011;1907;49.238;9.262;2022-07-29T03:36:37;7.20;;;6.23;;
3783;SDS011;1907;49.238;9.262;2022-07-29T03:39:03;5.43;;;5.10;;
3783;SDS011;1907;49.238;9.262;2022-07-29T03:41:30;6.00;;;5.10;;
3783;SDS011;1907;49.238;9.262;2022-07-29T03:43:57;5.80;;;5.60;;
3783;SDS011;1907;49.238;9.262;2022-07-29T03:46:24;7.20;;;6.10;;
3783;SDS011;1907;49.238;9.262;2022-07-29T03:48:55;5.90;;;5.43;;
3783;SDS011;1907;49.238;9.262;2022-07-29T03:51:25;5.10;;;4.80;;
3783;SDS011;1907;49.238;9.262;2022-07-29T03:53:51;5.83;;;5.00;;
3783;SDS011;1907;49.238;9.262;2022-07-29T03:56:17;5.47;;;4.80;;
3783;SDS011;1907;49.238;9.262;2022-07-29T03:58:46;5.50;;;5.30;;
3783;SDS011;1907;49.238;9.262;2022-07-29T04:01:13;5.53;;;5.30;;
3783;SDS011;1907;49.238;9.262;2022-07-29T04:03:40;5.63;;;5.43;;
3783;SDS011;1907;49.238;9.262;2022-07-29T04:06:07;4.83;;;4.57;;
3783;SDS011;1907;49.238;9.262;2022-07-29T04:08:33;4.73;;;4.30;;
3783;SDS011;1907;49.238;9.262;2022-07-29T04:11:00;6.57;;;6.00;;
3783;SDS011;1907;49.238;9.262;2022-07-29T04:13:26;6.60;;;6.07;;
3783;SDS011;1907;49.238;9.262;2022-07-29T04:15:51;5.27;;;5.07;;
3783;SDS011;1907;49.238;9.262;2022-07-29T04:18:17;4.37;;;4.17;;
3783;SDS011;1907;49.238;9.262;2022-07-29T04:20:43;9.40;;;4.53;;
3783;SDS011;1907;49.238;9.262;2022-07-29T04:23:08;4.43;;;4.30;;
3783;SDS011;1907;49.238;9.262;2022-07-29T04:25:38;5.37;;;5.07;;
3783;SDS011;1907;49.238;9.262;2022-07-29T04:28:05;4.57;;;4.17;;
3783;SDS011;1907;49.238;9.262;2022-07-29T04:30:31;5.03;;;4.83;;
3783;SDS011;1907;49.238;9.262;2022-07-29T04:32:57;9.63;;;5.70;;
3783;SDS011;1907;49.238;9.262;2022-07-29T04:35:25;5.10;;;4.80;;
3783;SDS011;1907;49.238;9.262;2022-07-29T04:37:51;6.10;;;5.60;;
3783;SDS011;1907;49.238;9.262;2022-07-29T04:40:17;4.80;;;4.40;;
3783;SDS011;1907;49.238;9.262;2022-07-29T04:42:43;4.90;;;4.57;;
3783;SDS011;1907;49.238;9.262;2022-07-29T04:45:08;4.43;;;3.93;;
3783;SDS011;1907;49.238;9.262;2022-07-29T04:47:34;3.80;;;3.60;;
3783;SDS011;1907;49.238;9.262;2022-07-29T04:50:00;5.13;;;4.67;;
3783;SDS011;1907;49.238;9.262;2022-07-29T04:52:26;4.53;;;4.30;;
3783;SDS011;1907;49.238;9.262;2022-07-29T04:54:51;5.80;;;3.90;;
3783;SDS011;1907;49.238;9.262;2022-07-29T04:57:17;7.27;;;4.43;;
3783;SDS011;1907;49.238;9.262;2022-07-29T04:59:43;5.70;;;3.40;;
3783;SDS011;1907;49.238;9.262;2022-07-29T05:02:09;4.30;;;4.00;;
3783;SDS011;1907;49.238;9.262;2022-07-29T05:04:34;4.40;;;4.10;;
3783;SDS011;1907;49.238;9.262;2022-07-29T05:07:00;3.50;;;3.40;;
3783;SDS011;1907;49.238;9.262;2022-07-29T05:09:25;3.57;;;3.27;;
3783;SDS011;1907;49.238;9.262;2022-07-29T05:11:51;23.80;;;3.90;;
3783;SDS011;1907;49.238;9.262;2022-07-29T05:14:17;9.13;;;4.10;;
3783;SDS011;1907;49.238;9.262;2022-07-29T05:16:42;3.03;;;2.93;;
3783;SDS011;1907;49.238;9.262;2022-07-29T05:19:08;4.23;;;3.93;;
3783;SDS011;1907;49.238;9.262;2022-07-29T05:21:34;3.20;;;3.00;;
3783;SDS011;1907;49.238;9.262;2022-07-29T05:23:59;4.00;;;3.80;;
3783;SDS011;1907;49.238;9.262;2022-07-29T05:26:25;34.23;;;3.60;;
3783;SDS011;1907;49.238;9.262;2022-07-29T05:28:51;3.60;;;3.30;;
3783;SDS011;1907;49.238;9.262;2022-07-29T05:31:18;4.13;;;3.00;;
3783;SDS011;1907;49.238;9.262;2022-07-29T05:33:44;8.60;;;3.03;;
3783;SDS011;1907;49.238;9.262;2022-07-29T05:36:10;3.47;;;3.27;;
3783;SDS011;1907;49.238;9.262;2022-07-29T05:38:36;3.43;;;3.30;;
3783;SDS011;1907;49.238;9.262;2022-07-29T05:41:02;3.37;;;3.17;;
3783;SDS011;1907;49.238;9.262;2022-07-29T05:43:28;3.40;;;3.30;;
3783;SDS011;1907;49.238;9.262;2022-07-29T05:45:54;3.53;;;3.43;;
3783;SDS011;1907;49.238;9.262;2022-07-29T05:48:19;3.07;;;2.87;;
3783;SDS011;1907;49.238;9.262;2022-07-29T05:50:45;3.80;;;3.60;;
3783;SDS011;1907;49.238;9.262;2022-07-29T05:53:11;3.33;;;3.13;;
3783;SDS011;1907;49.238;9.262;2022-07-29T05:55:36;4.20;;;3.90;;
3783;SDS011;1907;49.238;9.262;2022-07-29T05:58:02;5.73;;;4.37;;
3783;SDS011;1907;49.238;9.262;2022-07-29T06:00:28;3.80;;;3.60;;
3783;SDS011;1907;49.238;9.262;2022-07-29T06:02:53;3.77;;;3.57;;
3783;SDS011;1907;49.238;9.262;2022-07-29T06:05:19;4.03;;;3.80;;
3783;SDS011;1907;49.238;9.262;2022-07-29T06:07:44;3.77;;;3.57;;
3783;SDS011;1907;49.238;9.262;2022-07-29T06:10:10;6.43;;;3.80;;
3783;SDS011;1907;49.238;9.262;2022-07-29T06:12:36;4.60;;;4.40;;
3783;SDS011;1907;49.238;9.262;2022-07-29T06:15:01;8.03;;;3.83;;
3783;SDS011;1907;49.238;9.262;2022-07-29T06:17:27;3.30;;;3.20;;
3783;SDS011;1907;49.238;9.262;2022-07-29T06:19:53;3.13;;;3.03;;
3783;SDS011;1907;49.238;9.262;2022-07-29T06:22:18;4.50;;;4.20;;
3783;SDS011;1907;49.238;9.262;2022-07-29T06:24:44;3.77;;;3.43;;
3783;SDS011;1907;49.238;9.262;2022-07-29T06:27:10;4.10;;;3.73;;
3783;SDS011;1907;49.238;9.262;2022-07-29T06:29:36;8.57;;;4.10;;
3783;SDS011;1907;49.238;9.262;2022-07-29T06:32:02;4.30;;;4.10;;
3783;SDS011;1907;49.238;9.262;2022-07-29T06:34:28;3.87;;;3.63;;
3783;SDS011;1907;49.238;9.262;2022-07-29T06:36:53;4.00;;;3.80;;
3783;SDS011;1907;49.238;9.262;2022-07-29T06:39:19;3.80;;;3.60;;
3783;SDS011;1907;49.238;9.262;2022-07-29T06:41:48;4.10;;;3.73;;
3783;SDS011;1907;49.238;9.262;2022-07-29T06:44:15;3.47;;;3.37;;
3783;SDS011;1907;49.238;9.262;2022-07-29T06:46:42;2.77;;;2.53;;
3783;SDS011;1907;49.238;9.262;2022-07-29T06:49:08;2.83;;;2.63;;
3783;SDS011;1907;49.238;9.262;2022-07-29T06:51:34;6.33;;;2.80;;
3783;SDS011;1907;49.238;9.262;2022-07-29T06:54:01;4.97;;;3.00;;
3783;SDS011;1907;49.238;9.262;2022-07-29T06:56:28;2.93;;;2.73;;
3783;SDS011;1907;49.238;9.262;2022-07-29T06:58:54;2.23;;;2.13;;
3783;SDS011;1907;49.238;9.262;2022-07-29T07:01:20;2.07;;;1.77;;
3783;SDS011;1907;49.238;9.262;2022-07-29T07:03:45;3.00;;;2.20;;
3783;SDS011;1907;49.238;9.262;2022-07-29T07:06:11;1.90;;;1.80;;
3783;SDS011;1907;49.238;9.262;2022-07-29T07:08:37;2.10;;;2.00;;
3783;SDS011;1907;49.238;9.262;2022-07-29T07:11:02;1.70;;;1.60;;
3783;SDS011;1907;49.238;9.262;2022-07-29T07:13:28;1.93;;;1.83;;
3783;SDS011;1907;49.238;9.262;2022-07-29T07:15:59;2.93;;;1.63;;
3783;SDS011;1907;49.238;9.262;2022-07-29T07:18:25;3.40;;;2.70;;
3783;SDS011;1907;49.238;9.262;2022-07-29T07:20:51;3.03;;;2.10;;
3783;SDS011;1907;49.238;9.262;2022-07-29T07:23:16;2.60;;;2.40;;
3783;SDS011;1907;49.238;9.262;2022-07-29T07:25:42;25.33;;;2.53;;
3783;SDS011;1907;49.238;9.262;2022-07-29T07:28:07;3.57;;;1.60;;
3783;SDS011;1907;49.238;9.262;2022-07-29T07:30:33;2.47;;;2.37;;
3783;SDS011;1907;49.238;9.262;2022-07-29T07:32:59;1.93;;;1.83;;
3783;SDS011;1907;49.238;9.262;2022-07-29T07:35:28;1.93;;;1.83;;
3783;SDS011;1907;49.238;9.262;2022-07-29T07:37:54;2.27;;;1.93;;
3783;SDS011;1907;49.238;9.262;2022-07-29T07:40:20;4.50;;;1.80;;
3783;SDS011;1907;49.238;9.262;2022-07-29T07:42:46;2.10;;;1.23;;
3783;SDS011;1907;49.238;9.262;2022-07-29T07:45:12;3.10;;;1.33;;
3783;SDS011;1907;49.238;9.262;2022-07-29T07:47:38;1.10;;;1.00;;
3783;SDS011;1907;49.238;9.262;2022-07-29T07:50:04;1.53;;;1.43;;
3783;SDS011;1907;49.238;9.262;2022-07-29T07:52:32;0.90;;;0.90;;
3783;SDS011;1907;49.238;9.262;2022-07-29T07:54:58;1.43;;;1.37;;
3783;SDS011;1907;49.238;9.262;2022-07-29T07:57:24;1.23;;;1.13;;
3783;SDS011;1907;49.238;9.262;2022-07-29T07:59:50;1.30;;;1.20;;
3783;SDS011;1907;49.238;9.262;2022-07-29T08:02:15;1.20;;;0.90;;
3783;SDS011;1907;49.238;9.262;2022-07-29T08:04:41;1.43;;;1.33;;
3783;SDS011;1907;49.238;9.262;2022-07-29T08:07:07;3.07;;;0.90;;
3783;SDS011;1907;49.238;9.262;2022-07-29T08:09:34;2.63;;;1.23;;
3783;SDS011;1907;49.238;9.262;2022-07-29T08:12:00;2.70;;;1.47;;
3783;SDS011;1907;49.238;9.262;2022-07-29T08:14:28;2.10;;;2.00;;
3783;SDS011;1907;49.238;9.262;2022-07-29T08:16:55;3.40;;;1.47;;
3783;SDS011;1907;49.238;9.262;2022-07-29T08:19:20;2.60;;;1.93;;
3783;SDS011;1907;49.238;9.262;2022-07-29T08:21:46;2.13;;;2.03;;
3783;SDS011;1907;49.238;9.262;2022-07-29T08:24:12;2.43;;;2.33;;
3783;SDS011;1907;49.238;9.262;2022-07-29T08:26:56;5.63;;;3.40;;
3783;SDS011;1907;49.238;9.262;2022-07-29T08:29:22;3.03;;;2.83;;
3783;SDS011;1907;49.238;9.262;2022-07-29T08:31:47;3.97;;;3.67;;
3783;SDS011;1907;49.238;9.262;2022-07-29T08:34:13;2.90;;;2.20;;
3783;SDS011;1907;49.238;9.262;2022-07-29T08:36:39;3.60;;;3.40;;
3783;SDS011;1907;49.238;9.262;2022-07-29T08:39:04;5.83;;;3.23;;
3783;SDS011;1907;49.238;9.262;2022-07-29T08:41:30;3.87;;;3.60;;
3783;SDS011;1907;49.238;9.262;2022-07-29T08:43:56;4.13;;;3.83;;
3783;SDS011;1907;49.238;9.262;2022-07-29T08:46:22;3.70;;;3.50;;
3783;SDS011;1907;49.238;9.262;2022-07-29T08:48:48;3.30;;;3.00;;
3783;SDS011;1907;49.238;9.262;2022-07-29T08:51:15;3.00;;;2.90;;
3783;SDS011;1907;49.238;9.262;2022-07-29T08:53:45;3.50;;;3.20;;
3783;SDS011;1907;49.238;9.262;2022-07-29T08:56:13;2.67;;;2.50;;
3783;SDS011;1907;49.238;9.262;2022-07-29T08:58:44;4.40;;;3.53;;
3783;SDS011;1907;49.238;9.262;2022-07-29T09:01:11;7.20;;;3.07;;
3783;SDS011;1907;49.238;9.262;2022-07-29T09:03:40;3.17;;;3.00;;
3783;SDS011;1907;49.238;9.262;2022-07-29T09:06:08;2.80;;;2.70;;
3783;SDS011;1907;49.238;9.262;2022-07-29T09:08:34;3.50;;;3.20;;
3783;SDS011;1907;49.238;9.262;2022-07-29T09:11:02;3.00;;;2.90;;
3783;SDS011;1907;49.238;9.262;2022-07-29T09:13:28;3.83;;;3.63;;
3783;SDS011;1907;49.238;9.262;2022-07-29T09:15:54;5.37;;;3.30;;
3783;SDS011;1907;49.238;9.262;2022-07-29T09:18:32;3.90;;;3.70;;
3783;SDS011;1907;49.238;9.262;2022-07-29T09:20:59;3.90;;;3.70;;
3783;SDS011;1907;49.238;9.262;2022-07-29T09:26:28;5.77;;;3.90;;
3783;SDS011;1907;49.238;9.262;2022-07-29T09:28:58;5.93;;;3.80;;
3783;SDS011;1907;49.238;9.262;2022-07-29T09:31:34;3.40;;;3.30;;
3783;SDS011;1907;49.238;9.262;2022-07-29T09:34:02;3.50;;;3.30;;
3783;SDS011;1907;49.238;9.262;2022-07-29T09:36:28;4.57;;;4.30;;
3783;SDS011;1907;49.238;9.262;2022-07-29T09:38:58;3.60;;;3.30;;
3783;SDS011;1907;49.238;9.262;2022-07-29T09:41:28;4.77;;;4.57;;
3783;SDS011;1907;49.238;9.262;2022-07-29T09:43:58;3.47;;;3.20;;
3783;SDS011;1907;49.238;9.262;2022-07-29T09:46:25;2.80;;;2.70;;
3783;SDS011;1907;49.238;9.262;2022-07-29T09:51:37;6.43;;;4.00;;
3783;SDS011;1907;49.238;9.262;2022-07-29T09:54:25;3.87;;;3.67;;
3783;SDS011;1907;49.238;9.262;2022-07-29T09:56:51;7.10;;;4.07;;
3783;SDS011;1907;49.238;9.262;2022-07-29T09:59:17;8.83;;;3.50;;
3783;SDS011;1907;49.238;9.262;2022-07-29T10:01:42;5.33;;;3.73;;
3783;SDS011;1907;49.238;9.262;2022-07-29T10:04:08;3.90;;;3.60;;
3783;SDS011;1907;49.238;9.262;2022-07-29T10:06:34;3.10;;;2.90;;
3783;SDS011;1907;49.238;9.262;2022-07-29T10:09:07;3.33;;;3.13;;
3783;SDS011;1907;49.238;9.262;2022-07-29T10:11:34;7.23;;;4.07;;
3783;SDS011;1907;49.238;9.262;2022-07-29T10:14:01;4.57;;;4.37;;
3783;SDS011;1907;49.238;9.262;2022-07-29T10:16:27;6.73;;;3.80;;
3783;SDS011;1907;49.238;9.262;2022-07-29T10:18:57;5.43;;;3.83;;
3783;SDS011;1907;49.238;9.262;2022-07-29T10:21:24;5.80;;;4.50;;
3783;SDS011;1907;49.238;9.262;2022-07-29T10:23:51;3.13;;;3.03;;
3783;SDS011;1907;49.238;9.262;2022-07-29T10:26:17;3.87;;;3.67;;
3783;SDS011;1907;49.238;9.262;2022-07-29T10:28:44;5.67;;;4.30;;
3783;SDS011;1907;49.238;9.262;2022-07-29T10:31:12;3.37;;;3.17;;
3783;SDS011;1907;49.238;9.262;2022-07-29T10:34:11;3.80;;;3.60;;
3783;SDS011;1907;49.238;9.262;2022-07-29T10:36:53;3.80;;;3.53;;
3783;SDS011;1907;49.238;9.262;2022-07-29T10:39:32;8.33;;;3.33;;
3783;SDS011;1907;49.238;9.262;2022-07-29T10:42:22;3.90;;;3.60;;
3783;SDS011;1907;49.238;9.262;2022-07-29T10:44:50;5.57;;;2.90;;
3783;SDS011;1907;49.238;9.262;2022-07-29T10:47:24;5.43;;;3.67;;
3783;SDS011;1907;49.238;9.262;2022-07-29T10:50:00;3.60;;;3.40;;
3783;SDS011;1907;49.238;9.262;2022-07-29T10:52:51;4.17;;;3.97;;
3783;SDS011;1907;49.238;9.262;2022-07-29T10:55:37;3.03;;;2.83;;
3783;SDS011;1907;49.238;9.262;2022-07-29T11:00:46;3.30;;;3.10;;
3783;SDS011;1907;49.238;9.262;2022-07-29T11:06:07;5.23;;;3.50;;
3783;SDS011;1907;49.238;9.262;2022-07-29T11:08:33;2.93;;;2.83;;
3783;SDS011;1907;49.238;9.262;2022-07-29T11:13:52;2.43;;;1.80;;
3783;SDS011;1907;49.238;9.262;2022-07-29T11:16:20;2.80;;;2.60;;
3783;SDS011;1907;49.238;9.262;2022-07-29T11:21:37;3.20;;;2.50;;
3783;SDS011;1907;49.238;9.262;2022-07-29T11:24:11;1.70;;;1.60;;
3783;SDS011;1907;49.238;9.262;2022-07-29T11:26:37;1.70;;;1.60;;
3783;SDS011;1907;49.238;9.262;2022-07-29T11:29:06;3.60;;;2.10;;
3783;SDS011;1907;49.238;9.262;2022-07-29T11:31:45;2.63;;;2.43;;
3783;SDS011;1907;49.238;9.262;2022-07-29T11:34:23;1.85;;;1.75;;
3783;SDS011;1907;49.238;9.262;2022-07-29T11:47:27;1.93;;;1.83;;
3783;SDS011;1907;49.238;9.262;2022-07-29T11:49:54;14.03;;;3.10;;
3783;SDS011;1907;49.238;9.262;2022-07-29T11:52:22;6.90;;;2.97;;
3783;SDS011;1907;49.238;9.262;2022-07-29T11:54:48;7.53;;;2.70;;
3783;SDS011;1907;49.238;9.262;2022-07-29T11:57:18;2.80;;;2.70;;
3783;SDS011;1907;49.238;9.262;2022-07-29T11:59:46;3.87;;;2.80;;
3783;SDS011;1907;49.238;9.262;2022-07-29T12:02:13;7.20;;;2.80;;
3783;SDS011;1907;49.238;9.262;2022-07-29T12:04:54;3.43;;;3.23;;
3783;SDS011;1907;49.238;9.262;2022-07-29T12:07:31;3.40;;;3.03;;
3783;SDS011;1907;49.238;9.262;2022-07-29T12:09:58;3.67;;;3.47;;
3783;SDS011;1907;49.238;9.262;2022-07-29T12:12:24;4.27;;;4.07;;
3783;SDS011;1907;49.238;9.262;2022-07-29T12:14:50;4.30;;;4.00;;
3783;SDS011;1907;49.238;9.262;2022-07-29T12:19:52;3.50;;;3.30;;
3783;SDS011;1907;49.238;9.262;2022-07-29T12:22:25;4.70;;;4.30;;
3783;SDS011;1907;49.238;9.262;2022-07-29T12:25:08;3.67;;;3.57;;
3783;SDS011;1907;49.238;9.262;2022-07-29T12:27:39;3.90;;;3.70;;
3783;SDS011;1907;49.238;9.262;2022-07-29T12:30:12;4.70;;;4.50;;
3783;SDS011;1907;49.238;9.262;2022-07-29T12:32:42;3.90;;;3.60;;
3783;SDS011;1907;49.238;9.262;2022-07-29T12:37:47;4.47;;;4.07;;
3783;SDS011;1907;49.238;9.262;2022-07-29T12:40:16;8.63;;;4.03;;
3783;SDS011;1907;49.238;9.262;2022-07-29T12:45:29;4.50;;;4.30;;
3783;SDS011;1907;49.238;9.262;2022-07-29T12:47:56;3.60;;;3.30;;
3783;SDS011;1907;49.238;9.262;2022-07-29T12:50:22;6.20;;;3.13;;
3783;SDS011;1907;49.238;9.262;2022-07-29T12:52:48;3.27;;;3.07;;
3783;SDS011;1907;49.238;9.262;2022-07-29T12:55:13;4.00;;;3.67;;
3783;SDS011;1907;49.238;9.262;2022-07-29T12:57:48;3.20;;;3.00;;
3783;SDS011;1907;49.238;9.262;2022-07-29T13:00:21;3.63;;;3.43;;
3783;SDS011;1907;49.238;9.262;2022-07-29T13:02:54;2.77;;;2.57;;
3783;SDS011;1907;49.238;9.262;2022-07-29T13:05:24;7.53;;;2.97;;
3783;SDS011;1907;49.238;9.262;2022-07-29T13:08:12;3.00;;;2.80;;
3783;SDS011;1907;49.238;9.262;2022-07-29T13:10:41;3.40;;;3.20;;
3783;SDS011;1907;49.238;9.262;2022-07-29T13:13:11;9.70;;;2.60;;
3783;SDS011;1907;49.238;9.262;2022-07-29T13:20:57;5.37;;;3.10;;
3783;SDS011;1907;49.238;9.262;2022-07-29T13:23:36;3.10;;;3.00;;
3783;SDS011;1907;49.238;9.262;2022-07-29T13:26:06;3.37;;;3.17;;
3783;SDS011;1907;49.238;9.262;2022-07-29T13:28:36;3.77;;;3.47;;
3783;SDS011;1907;49.238;9.262;2022-07-29T13:31:02;4.33;;;2.63;;
3783;SDS011;1907;49.238;9.262;2022-07-29T13:36:03;3.23;;;3.10;;
3783;SDS011;1907;49.238;9.262;2022-07-29T13:38:29;2.90;;;2.70;;
3783;SDS011;1907;49.238;9.262;2022-07-29T13:40:54;4.13;;;2.50;;
3783;SDS011;1907;49.238;9.262;2022-07-29T13:43:20;3.20;;;3.00;;
3783;SDS011;1907;49.238;9.262;2022-07-29T13:45:46;3.30;;;3.10;;
3783;SDS011;1907;49.238;9.262;2022-07-29T13:48:11;3.03;;;2.73;;
3783;SDS011;1907;49.238;9.262;2022-07-29T13:50:37;4.67;;;2.80;;
3783;SDS011;1907;49.238;9.262;2022-07-29T13:53:03;4.00;;;2.40;;
3783;SDS011;1907;49.238;9.262;2022-07-29T13:55:29;5.50;;;2.97;;
3783;SDS011;1907;49.238;9.262;2022-07-29T13:57:54;2.90;;;2.20;;
3783;SDS011;1907;49.238;9.262;2022-07-29T14:00:20;3.27;;;2.63;;
3783;SDS011;1907;49.238;9.262;2022-07-29T14:02:46;2.60;;;2.40;;
3783;SDS011;1907;49.238;9.262;2022-07-29T14:05:11;2.87;;;2.67;;
3783;SDS011;1907;49.238;9.262;2022-07-29T14:07:38;2.50;;;2.30;;
3783;SDS011;1907;49.238;9.262;2022-07-29T14:10:04;2.90;;;2.70;;
3783;SDS011;1907;49.238;9.262;2022-07-29T14:12:30;2.97;;;2.77;;
3783;SDS011;1907;49.238;9.262;2022-07-29T14:14:56;5.50;;;2.37;;
3783;SDS011;1907;49.238;9.262;2022-07-29T14:17:21;2.57;;;2.30;;
3783;SDS011;1907;49.238;9.262;2022-07-29T14:19:47;8.13;;;2.67;;
3783;SDS011;1907;49.238;9.262;2022-07-29T14:22:13;4.10;;;2.57;;
3783;SDS011;1907;49.238;9.262;2022-07-29T14:24:39;2.33;;;2.23;;
3783;SDS011;1907;49.238;9.262;2022-07-29T14:27:05;2.77;;;2.57;;
3783;SDS011;1907;49.238;9.262;2022-07-29T14:29:31;6.10;;;2.57;;
3783;SDS011;1907;49.238;9.262;2022-07-29T14:31:57;2.43;;;2.23;;
3783;SDS011;1907;49.238;9.262;2022-07-29T14:34:23;2.00;;;1.90;;
3783;SDS011;1907;49.238;9.262;2022-07-29T14:36:49;2.60;;;2.50;;
3783;SDS011;1907;49.238;9.262;2022-07-29T14:39:14;2.80;;;2.67;;
3783;SDS011;1907;49.238;9.262;2022-07-29T14:41:41;2.50;;;1.80;;
3783;SDS011;1907;49.238;9.262;2022-07-29T14:44:07;2.53;;;2.33;;
3783;SDS011;1907;49.238;9.262;2022-07-29T14:46:32;2.73;;;2.50;;
3783;SDS011;1907;49.238;9.262;2022-07-29T14:48:58;3.20;;;2.90;;
3783;SDS011;1907;49.238;9.262;2022-07-29T14:51:24;2.53;;;2.33;;
3783;SDS011;1907;49.238;9.262;2022-07-29T14:53:49;7.83;;;3.20;;
3783;SDS011;1907;49.238;9.262;2022-07-29T14:56:15;2.50;;;2.23;;
3783;SDS011;1907;49.238;9.262;2022-07-29T14:58:40;2.70;;;2.50;;
3783;SDS011;1907;49.238;9.262;2022-07-29T15:01:06;2.37;;;2.27;;
3783;SDS011;1907;49.238;9.262;2022-07-29T15:03:32;2.20;;;2.10;;
3783;SDS011;1907;49.238;9.262;2022-07-29T15:05:57;3.83;;;3.53;;
3783;SDS011;1907;49.238;9.262;2022-07-29T15:08:23;8.77;;;2.93;;
3783;SDS011;1907;49.238;9.262;2022-07-29T15:10:50;3.53;;;2.57;;
3783;SDS011;1907;49.238;9.262;2022-07-29T15:13:16;2.83;;;2.73;;
3783;SDS011;1907;49.238;9.262;2022-07-29T15:15:41;5.10;;;2.33;;
3783;SDS011;1907;49.238;9.262;2022-07-29T15:18:07;2.70;;;2.60;;
3783;SDS011;1907;49.238;9.262;2022-07-29T15:20:34;2.70;;;2.50;;
3783;SDS011;1907;49.238;9.262;2022-07-29T15:22:59;2.83;;;2.63;;
3783;SDS011;1907;49.238;9.262;2022-07-29T15:25:25;3.87;;;2.87;;
3783;SDS011;1907;49.238;9.262;2022-07-29T15:27:51;2.43;;;2.33;;
3783;SDS011;1907;49.238;9.262;2022-07-29T15:30:17;5.13;;;2.30;;
3783;SDS011;1907;49.238;9.262;2022-07-29T15:32:43;2.27;;;2.07;;
3783;SDS011;1907;49.238;9.262;2022-07-29T15:35:09;5.20;;;2.13;;
3783;SDS011;1907;49.238;9.262;2022-07-29T15:37:35;3.27;;;3.07;;
3783;SDS011;1907;49.238;9.262;2022-07-29T15:40:03;2.67;;;1.60;;
3783;SDS011;1907;49.238;9.262;2022-07-29T15:42:29;6.20;;;1.87;;
3783;SDS011;1907;49.238;9.262;2022-07-29T15:44:55;2.13;;;2.00;;
3783;SDS011;1907;49.238;9.262;2022-07-29T15:47:21;2.03;;;1.93;;
3783;SDS011;1907;49.238;9.262;2022-07-29T15:49:47;2.07;;;1.97;;
3783;SDS011;1907;49.238;9.262;2022-07-29T15:52:13;2.20;;;2.00;;
3783;SDS011;1907;49.238;9.262;2022-07-29T15:54:40;2.77;;;2.67;;
3783;SDS011;1907;49.238;9.262;2022-07-29T15:57:05;1.80;;;1.70;;
3783;SDS011;1907;49.238;9.262;2022-07-29T15:59:32;2.60;;;2.30;;
3783;SDS011;1907;49.238;9.262;2022-07-29T16:01:58;2.73;;;2.53;;
3783;SDS011;1907;49.238;9.262;2022-07-29T16:04:24;2.30;;;2.13;;
3783;SDS011;1907;49.238;9.262;2022-07-29T16:06:50;2.83;;;2.63;;
3783;SDS011;1907;49.238;9.262;2022-07-29T16:09:16;4.70;;;2.93;;
3783;SDS011;1907;49.238;9.262;2022-07-29T16:11:42;7.90;;;2.70;;
3783;SDS011;1907;49.238;9.262;2022-07-29T16:14:10;3.63;;;3.43;;
3783;SDS011;1907;49.238;9.262;2022-07-29T16:16:36;2.97;;;2.87;;